Time;durP1;ratioP1;P1;durP2;ratioP2;P2;SDS_P1;SDS_P2;PMS_P1;PMS_P2;Temp;Humidity;BMP_temperature;BMP_pressure;BME280_temperature;BME280_humidity;BME280_pressure;Samples;Min_cycle;Max_cycle;Signal;HPM_P1;HPM_P2
2024/04/17 00:00:52;;;;;;;;;;;25.20;50.60;;;;;;5386771;26;19940;-40
2024/04/17 00:03:21;;;;;;;;;;;25.20;50.50;;;;;;5394940;26;19998;-41
2024/04/17 00:05:47;;;;;;;;;;;25.10;50.40;;;;;;5416959;26;19940;-40
2024/04/17 00:08:13;;;;;;;;;;;25.10;50.40;;;;;;5426112;26;19929;-39
2024/04/17 00:10:39;;;;;;;;;;;25.10;50.30;;;;;;5394091;26;20532;-40
2024/04/17 00:13:05;;;;;;;;;;;25.10;50.30;;;;;;5425722;26;19936;-40
2024/04/17 00:15:31;;;;;;;;;;;25.10;50.30;;;;;;5425548;26;19929;-41
2024/04/17 00:17:57;;;;;;;;;;;25.10;50.40;;;;;;5424621;26;20749;-42
2024/04/17 00:20:23;;;;;;;;;;;25.10;50.50;;;;;;5423216;26;19929;-41
2024/04/17 00:22:49;;;;;;;;;;;25.10;50.40;;;;;;5425208;26;19935;-43
2024/04/17 00:25:15;;;;;;;;;;;25.10;50.70;;;;;;5424684;26;19932;-41
2024/04/17 00:27:41;;;;;;;;;;;25.00;50.60;;;;;;5425206;26;20002;-39
2024/04/17 00:30:07;;;;;;;;;;;25.00;50.30;;;;;;5424738;26;19933;-44
2024/04/17 00:32:33;;;;;;;;;;;25.00;50.40;;;;;;5424685;26;19929;-42
2024/04/17 00:34:59;;;;;;;;;;;25.00;50.40;;;;;;5423966;26;19936;-41
2024/04/17 00:37:25;;;;;;;;;;;25.00;50.40;;;;;;5424254;26;20311;-41
2024/04/17 00:39:51;;;;;;;;;;;25.00;50.50;;;;;;5424751;26;19951;-41
2024/04/17 00:42:17;;;;;;;;;;;25.00;50.30;;;;;;5424685;26;19937;-42
2024/04/17 00:44:43;;;;;;;;;;;25.00;50.40;;;;;;5425135;26;19941;-44
2024/04/17 00:47:09;;;;;;;;;;;25.00;50.40;;;;;;5419625;26;19932;-42
2024/04/17 00:49:36;;;;;;;;;;;25.00;50.50;;;;;;5425252;26;19929;-44
2024/04/17 00:52:02;;;;;;;;;;;25.00;50.50;;;;;;5423246;26;19998;-40
2024/04/17 00:54:28;;;;;;;;;;;25.00;50.50;;;;;;5425357;26;19929;-44
2024/04/17 00:56:54;;;;;;;;;;;24.90;50.40;;;;;;5425340;26;19956;-41
2024/04/17 00:59:21;;;;;;;;;;;24.90;50.40;;;;;;5393022;26;19929;-41
2024/04/17 01:01:47;;;;;;;;;;;24.90;50.40;;;;;;5424951;26;19929;-42
2024/04/17 01:04:13;;;;;;;;;;;24.90;50.30;;;;;;5424185;26;19929;-43
2024/04/17 01:06:41;;;;;;;;;;;24.90;50.50;;;;;;5423990;26;19960;-40
2024/04/17 01:09:07;;;;;;;;;;;24.90;50.70;;;;;;5416716;26;19929;-41
2024/04/17 01:11:39;;;;;;;;;;;24.80;50.90;;;;;;5423889;26;19993;-41
2024/04/17 01:14:05;;;;;;;;;;;24.90;51.10;;;;;;5423132;26;19940;-40
2024/04/17 01:16:35;;;;;;;;;;;24.80;51.30;;;;;;5424303;26;19936;-40
2024/04/17 01:19:04;;;;;;;;;;;24.80;51.10;;;;;;5423757;26;19936;-40
2024/04/17 01:21:30;;;;;;;;;;;24.80;51.00;;;;;;5414632;26;19936;-43
2024/04/17 01:23:56;;;;;;;;;;;24.80;51.00;;;;;;5424091;26;19928;-41
2024/04/17 01:26:23;;;;;;;;;;;24.80;51.00;;;;;;5378705;26;19929;-40
2024/04/17 01:28:49;;;;;;;;;;;24.80;50.90;;;;;;5423689;26;19974;-41
2024/04/17 01:31:15;;;;;;;;;;;24.80;50.80;;;;;;5423584;26;19929;-42
2024/04/17 01:33:41;;;;;;;;;;;24.70;50.60;;;;;;5424197;26;19936;-41
2024/04/17 01:36:07;;;;;;;;;;;24.70;50.60;;;;;;5422858;26;19928;-40
2024/04/17 01:38:33;;;;;;;;;;;24.70;50.50;;;;;;5424836;26;19941;-42
2024/04/17 01:40:59;;;;;;;;;;;24.70;50.60;;;;;;5423179;26;19944;-41
2024/04/17 01:43:26;;;;;;;;;;;24.70;50.40;;;;;;5423624;26;19955;-41
2024/04/17 01:45:52;;;;;;;;;;;24.60;50.50;;;;;;5423409;26;19936;-41
2024/04/17 01:48:18;;;;;;;;;;;24.60;50.50;;;;;;5422455;26;19929;-40
2024/04/17 01:50:44;;;;;;;;;;;24.60;50.50;;;;;;5423287;26;19929;-40
2024/04/17 01:53:10;;;;;;;;;;;24.60;50.60;;;;;;5423107;26;19937;-41
2024/04/17 01:55:36;;;;;;;;;;;24.60;50.60;;;;;;5423397;26;20443;-41
2024/04/17 01:58:02;;;;;;;;;;;24.60;50.70;;;;;;5423187;26;19937;-41
2024/04/17 02:00:28;;;;;;;;;;;24.60;50.60;;;;;;5423235;26;19929;-40
2024/04/17 02:02:55;;;;;;;;;;;24.60;50.60;;;;;;5424543;26;19928;-42
2024/04/17 02:05:21;;;;;;;;;;;24.50;50.50;;;;;;5426353;26;20011;-40
2024/04/17 02:07:47;;;;;;;;;;;24.50;50.50;;;;;;5395088;26;19941;-41
2024/04/17 02:10:13;;;;;;;;;;;24.50;50.50;;;;;;5426098;26;19929;-41
2024/04/17 02:12:39;;;;;;;;;;;24.50;50.50;;;;;;5426991;26;19929;-41
2024/04/17 02:15:06;;;;;;;;;;;24.50;50.50;;;;;;5427847;26;19937;-40
2024/04/17 02:17:31;;;;;;;;;;;24.50;50.50;;;;;;5426616;26;19936;-43
2024/04/17 02:19:57;;;;;;;;;;;24.50;50.40;;;;;;5423246;26;19933;-40
2024/04/17 02:22:24;;;;;;;;;;;24.40;50.30;;;;;;5424784;26;19975;-40
2024/04/17 02:24:50;;;;;;;;;;;24.40;50.40;;;;;;5426193;26;20334;-40
2024/04/17 02:27:16;;;;;;;;;;;24.40;50.40;;;;;;5419248;26;19937;-41
2024/04/17 02:29:41;;;;;;;;;;;24.40;50.30;;;;;;5426753;26;19929;-41
2024/04/17 02:32:08;;;;;;;;;;;24.40;50.40;;;;;;5424435;26;19937;-41
2024/04/17 02:34:34;;;;;;;;;;;24.40;50.40;;;;;;5426042;26;19937;-42
2024/04/17 02:37:00;;;;;;;;;;;24.30;50.30;;;;;;5425297;26;19933;-43
2024/04/17 02:39:26;;;;;;;;;;;24.30;50.30;;;;;;5426350;26;20096;-42
2024/04/17 02:41:51;;;;;;;;;;;24.30;50.30;;;;;;5426449;26;19978;-40
2024/04/17 02:44:17;;;;;;;;;;;24.30;50.40;;;;;;5425862;26;19943;-42
2024/04/17 02:46:43;;;;;;;;;;;24.30;50.40;;;;;;5426462;26;19929;-43
2024/04/17 02:49:09;;;;;;;;;;;24.20;50.30;;;;;;5423785;26;19937;-40
2024/04/17 02:51:35;;;;;;;;;;;24.30;50.30;;;;;;5425769;26;19976;-40
2024/04/17 02:54:01;;;;;;;;;;;24.20;50.40;;;;;;5425619;26;19929;-45
2024/04/17 02:56:27;;;;;;;;;;;24.20;50.40;;;;;;5425785;26;19974;-40
2024/04/17 02:58:53;;;;;;;;;;;24.20;50.40;;;;;;5425843;26;19929;-42
2024/04/17 03:01:19;;;;;;;;;;;24.20;50.50;;;;;;5422974;26;19936;-40
2024/04/17 03:03:45;;;;;;;;;;;24.20;50.50;;;;;;5401710;26;20361;-41
2024/04/17 03:06:11;;;;;;;;;;;24.10;50.50;;;;;;5408328;26;19930;-43
2024/04/17 03:08:37;;;;;;;;;;;24.10;50.50;;;;;;5404679;26;19944;-40
2024/04/17 03:11:03;;;;;;;;;;;24.10;50.50;;;;;;5393382;26;19930;-40
2024/04/17 03:13:29;;;;;;;;;;;24.10;50.50;;;;;;5405095;26;20424;-44
2024/04/17 03:15:55;;;;;;;;;;;24.10;50.50;;;;;;5399925;26;19936;-41
2024/04/17 03:18:21;;;;;;;;;;;24.10;50.50;;;;;;5400473;26;19944;-40
2024/04/17 03:20:47;;;;;;;;;;;24.10;50.50;;;;;;5394752;26;19944;-39
2024/04/17 03:23:13;;;;;;;;;;;24.00;50.50;;;;;;5402683;26;20714;-40
2024/04/17 03:25:39;;;;;;;;;;;24.00;50.50;;;;;;5401090;26;19998;-39
2024/04/17 03:28:05;;;;;;;;;;;24.00;50.50;;;;;;5401973;26;20452;-40
2024/04/17 03:30:31;;;;;;;;;;;24.00;50.60;;;;;;5404900;26;19929;-40
2024/04/17 03:32:57;;;;;;;;;;;24.00;50.60;;;;;;5418758;26;19928;-42
2024/04/17 03:35:23;;;;;;;;;;;24.00;50.60;;;;;;5425485;26;19936;-40
2024/04/17 03:37:48;;;;;;;;;;;23.90;50.60;;;;;;5425306;26;19939;-40
2024/04/17 03:40:14;;;;;;;;;;;23.90;50.60;;;;;;5424672;26;19974;-40
2024/04/17 03:42:40;;;;;;;;;;;23.90;50.60;;;;;;5425181;26;19935;-40
2024/04/17 03:45:06;;;;;;;;;;;23.80;50.60;;;;;;5425267;26;19940;-40
2024/04/17 03:47:32;;;;;;;;;;;23.90;50.70;;;;;;5425134;26;19980;-40
2024/04/17 03:50:04;;;;;;;;;;;23.80;50.70;;;;;;5425088;26;19976;-40
2024/04/17 03:52:31;;;;;;;;;;;23.80;50.70;;;;;;5411935;26;20003;-40
2024/04/17 03:54:57;;;;;;;;;;;23.80;50.70;;;;;;5425035;26;19937;-40
2024/04/17 03:57:23;;;;;;;;;;;23.80;50.70;;;;;;5424934;26;19929;-40
2024/04/17 03:59:49;;;;;;;;;;;23.80;50.70;;;;;;5425018;26;19953;-40
2024/04/17 04:02:15;;;;;;;;;;;23.70;50.70;;;;;;5424285;26;19975;-40
2024/04/17 04:04:40;;;;;;;;;;;23.70;50.80;;;;;;5424838;26;19990;-43
2024/04/17 04:07:06;;;;;;;;;;;23.70;50.80;;;;;;5424586;26;19929;-40
2024/04/17 04:09:32;;;;;;;;;;;23.70;50.80;;;;;;5425090;26;19929;-43
2024/04/17 04:11:58;;;;;;;;;;;23.70;50.80;;;;;;5424136;26;20011;-40
2024/04/17 04:14:24;;;;;;;;;;;23.70;50.90;;;;;;5424692;26;19936;-40
2024/04/17 04:16:50;;;;;;;;;;;23.70;50.90;;;;;;5425214;26;19933;-40
2024/04/17 04:19:16;;;;;;;;;;;23.60;50.80;;;;;;5424372;26;19989;-40
2024/04/17 04:21:44;;;;;;;;;;;23.60;50.80;;;;;;5423596;26;20219;-40
2024/04/17 04:24:10;;;;;;;;;;;23.60;50.90;;;;;;5424246;26;19939;-40
2024/04/17 04:26:36;;;;;;;;;;;23.60;50.90;;;;;;5423476;26;19937;-41
2024/04/17 04:29:01;;;;;;;;;;;23.60;50.90;;;;;;5424153;26;19932;-40
2024/04/17 04:31:27;;;;;;;;;;;23.50;50.90;;;;;;5422354;26;19937;-40
2024/04/17 04:33:53;;;;;;;;;;;23.50;51.00;;;;;;5423916;26;20004;-40
2024/04/17 04:36:19;;;;;;;;;;;23.50;50.90;;;;;;5423630;26;19941;-40
2024/04/17 04:38:45;;;;;;;;;;;23.50;51.00;;;;;;5424859;26;19933;-40
2024/04/17 04:41:11;;;;;;;;;;;23.50;51.00;;;;;;5416388;26;19936;-41
2024/04/17 04:43:37;;;;;;;;;;;23.50;51.00;;;;;;5424611;26;20706;-40
2024/04/17 04:46:03;;;;;;;;;;;23.40;51.00;;;;;;5422490;26;19971;-43
2024/04/17 04:48:29;;;;;;;;;;;23.40;51.00;;;;;;5424580;26;19929;-40
2024/04/17 04:50:55;;;;;;;;;;;23.40;51.10;;;;;;5424326;26;20011;-40
2024/04/17 04:53:21;;;;;;;;;;;23.40;51.10;;;;;;5423795;26;19929;-40
2024/04/17 04:55:59;;;;;;;;;;;23.40;51.10;;;;;;5424537;26;19936;-41
2024/04/17 04:58:25;;;;;;;;;;;23.30;51.10;;;;;;5423941;26;19976;-41
2024/04/17 05:00:51;;;;;;;;;;;23.30;51.10;;;;;;5424388;26;20254;-40
2024/04/17 05:03:17;;;;;;;;;;;23.30;51.70;;;;;;5423620;26;22691;-40
2024/04/17 05:05:43;;;;;;;;;;;23.30;51.20;;;;;;5424237;26;19929;-43
2024/04/17 05:08:09;;;;;;;;;;;23.30;51.20;;;;;;5423634;26;19929;-41
2024/04/17 05:10:35;;;;;;;;;;;23.30;51.20;;;;;;5424420;26;19929;-40
2024/04/17 05:13:01;;;;;;;;;;;23.30;51.20;;;;;;5423679;26;19933;-40
2024/04/17 05:15:27;;;;;;;;;;;23.20;51.20;;;;;;5423671;26;19929;-44
2024/04/17 05:17:53;;;;;;;;;;;23.20;51.20;;;;;;5424411;26;19933;-41
2024/04/17 05:20:19;;;;;;;;;;;23.20;51.20;;;;;;5418342;26;20428;-43
2024/04/17 05:22:45;;;;;;;;;;;23.20;51.20;;;;;;5423844;26;19946;-42
2024/04/17 05:25:11;;;;;;;;;;;23.20;51.20;;;;;;5423279;26;19936;-40
2024/04/17 05:27:37;;;;;;;;;;;23.20;51.30;;;;;;5423862;26;19994;-41
2024/04/17 05:30:08;;;;;;;;;;;23.10;51.20;;;;;;5423346;26;19936;-44
2024/04/17 05:32:34;;;;;;;;;;;23.10;51.20;;;;;;5411812;26;19974;-42
2024/04/17 05:35:00;;;;;;;;;;;23.10;51.30;;;;;;5422949;26;19940;-41
2024/04/17 05:37:25;;;;;;;;;;;23.10;51.30;;;;;;5422432;26;19929;-42
2024/04/17 05:39:51;;;;;;;;;;;23.10;51.30;;;;;;5427472;26;19930;-46
2024/04/17 05:42:17;;;;;;;;;;;23.10;51.30;;;;;;5427492;26;20028;-42
2024/04/17 05:44:43;;;;;;;;;;;23.10;51.30;;;;;;5428002;26;19937;-45
2024/04/17 05:47:09;;;;;;;;;;;23.00;51.30;;;;;;5427079;26;19929;-44
2024/04/17 05:49:35;;;;;;;;;;;23.00;51.40;;;;;;5427321;26;19949;-45
2024/04/17 05:52:01;;;;;;;;;;;23.00;51.40;;;;;;5425670;26;19936;-43
2024/04/17 05:54:27;;;;;;;;;;;23.00;51.40;;;;;;5426251;26;19929;-44
2024/04/17 05:56:53;;;;;;;;;;;23.00;51.40;;;;;;5427101;26;19929;-45
2024/04/17 05:59:19;;;;;;;;;;;22.90;51.40;;;;;;5426841;26;19999;-41
2024/04/17 06:01:45;;;;;;;;;;;22.90;51.40;;;;;;5427245;26;19964;-41
2024/04/17 06:04:11;;;;;;;;;;;22.90;51.40;;;;;;5422942;26;19929;-41
2024/04/17 06:06:37;;;;;;;;;;;22.90;51.50;;;;;;5426575;26;19929;-42
2024/04/17 06:09:03;;;;;;;;;;;22.90;51.40;;;;;;5381471;26;19935;-45
2024/04/17 06:11:29;;;;;;;;;;;22.90;51.50;;;;;;5426716;26;19940;-44
2024/04/17 06:13:55;;;;;;;;;;;22.90;51.50;;;;;;5426788;26;19929;-43
2024/04/17 06:16:21;;;;;;;;;;;22.90;51.50;;;;;;5425377;26;19929;-41
2024/04/17 06:18:47;;;;;;;;;;;22.80;51.50;;;;;;5426947;26;19936;-41
2024/04/17 06:21:13;;;;;;;;;;;22.80;51.50;;;;;;5426459;26;19929;-45
2024/04/17 06:23:39;;;;;;;;;;;22.80;51.50;;;;;;5424824;26;19936;-42
2024/04/17 06:26:04;;;;;;;;;;;22.80;51.50;;;;;;5422725;26;19976;-42
2024/04/17 06:28:30;;;;;;;;;;;22.80;51.50;;;;;;5413957;26;19929;-42
2024/04/17 06:30:56;;;;;;;;;;;22.80;51.50;;;;;;5426366;26;19975;-42
2024/04/17 06:33:22;;;;;;;;;;;22.70;51.50;;;;;;5413829;26;19936;-43
2024/04/17 06:35:48;;;;;;;;;;;22.80;51.60;;;;;;5424603;26;20006;-46
2024/04/17 06:38:14;;;;;;;;;;;22.80;51.60;;;;;;5426021;26;19935;-43
2024/04/17 06:40:40;;;;;;;;;;;22.70;51.60;;;;;;5425108;26;19929;-42
2024/04/17 06:43:05;;;;;;;;;;;22.70;51.60;;;;;;5425877;26;19970;-44
2024/04/17 06:45:31;;;;;;;;;;;22.70;51.60;;;;;;5426179;26;19933;-43
2024/04/17 06:47:57;;;;;;;;;;;22.70;51.60;;;;;;5426282;26;19939;-42
2024/04/17 06:50:23;;;;;;;;;;;22.70;51.60;;;;;;5423979;26;19937;-44
2024/04/17 06:52:49;;;;;;;;;;;22.70;51.60;;;;;;5426175;26;19929;-42
2024/04/17 06:55:15;;;;;;;;;;;22.70;51.70;;;;;;5425323;26;19950;-42
2024/04/17 06:57:40;;;;;;;;;;;22.70;51.70;;;;;;5426251;26;19933;-42
2024/04/17 07:00:07;;;;;;;;;;;22.60;51.70;;;;;;5425910;26;19929;-41
2024/04/17 07:02:33;;;;;;;;;;;22.60;51.70;;;;;;5425820;26;19932;-42
2024/04/17 07:04:59;;;;;;;;;;;22.60;51.70;;;;;;5425247;26;19932;-45
2024/04/17 07:07:25;;;;;;;;;;;22.60;51.70;;;;;;5425872;26;19939;-41
2024/04/17 07:09:50;;;;;;;;;;;22.60;51.70;;;;;;5426161;26;20006;-43
2024/04/17 07:12:19;;;;;;;;;;;22.60;51.70;;;;;;5419012;26;19961;-41
2024/04/17 07:14:45;;;;;;;;;;;22.60;51.80;;;;;;5425837;26;20002;-41
2024/04/17 07:17:11;;;;;;;;;;;22.60;51.80;;;;;;5425523;26;19937;-42
2024/04/17 07:19:37;;;;;;;;;;;22.50;51.70;;;;;;5425945;26;19929;-42
2024/04/17 07:22:03;;;;;;;;;;;22.50;51.80;;;;;;5425586;26;20458;-43
2024/04/17 07:24:28;;;;;;;;;;;22.50;51.80;;;;;;5425412;26;19994;-45
2024/04/17 07:26:55;;;;;;;;;;;22.50;51.80;;;;;;5425848;26;19941;-41
2024/04/17 07:29:21;;;;;;;;;;;22.50;51.90;;;;;;5425357;26;19957;-42
2024/04/17 07:31:49;;;;;;;;;;;22.50;51.90;;;;;;5416019;26;19936;-41
2024/04/17 07:34:15;;;;;;;;;;;22.50;51.90;;;;;;5423301;26;20018;-41
2024/04/17 07:36:41;;;;;;;;;;;22.50;51.90;;;;;;5425821;26;19956;-42
2024/04/17 07:39:07;;;;;;;;;;;22.50;51.90;;;;;;5424903;26;19936;-41
2024/04/17 07:41:33;;;;;;;;;;;22.40;51.90;;;;;;5424324;26;20383;-42
2024/04/17 07:43:59;;;;;;;;;;;22.40;51.90;;;;;;5425302;26;19929;-43
2024/04/17 07:46:25;;;;;;;;;;;22.40;52.00;;;;;;5424929;26;19953;-41
2024/04/17 07:48:51;;;;;;;;;;;22.40;52.00;;;;;;5425575;26;19929;-41
2024/04/17 07:51:17;;;;;;;;;;;22.40;51.90;;;;;;5425125;26;19932;-42
2024/04/17 07:53:43;;;;;;;;;;;22.40;52.00;;;;;;5425693;26;19929;-41
2024/04/17 07:56:09;;;;;;;;;;;22.40;52.00;;;;;;5422522;26;19936;-41
2024/04/17 07:58:35;;;;;;;;;;;22.40;52.00;;;;;;5425175;26;19928;-41
2024/04/17 08:01:01;;;;;;;;;;;22.40;52.00;;;;;;5424447;26;19975;-42
2024/04/17 08:03:27;;;;;;;;;;;22.30;52.00;;;;;;5424065;26;19941;-41
2024/04/17 08:05:53;;;;;;;;;;;22.30;52.00;;;;;;5425090;26;19944;-42
2024/04/17 08:08:18;;;;;;;;;;;22.30;52.10;;;;;;5424596;26;20674;-45
2024/04/17 08:10:44;;;;;;;;;;;22.30;52.10;;;;;;5425472;26;19937;-43
2024/04/17 08:13:16;;;;;;;;;;;22.30;52.10;;;;;;5424803;26;19931;-42
2024/04/17 08:15:42;;;;;;;;;;;22.30;52.10;;;;;;5424623;26;19933;-44
2024/04/17 08:18:08;;;;;;;;;;;22.30;52.10;;;;;;5421809;26;19940;-41
2024/04/17 08:20:34;;;;;;;;;;;22.30;52.10;;;;;;5425083;26;19933;-44
2024/04/17 08:22:59;;;;;;;;;;;22.20;52.10;;;;;;5424854;26;19929;-43
2024/04/17 08:25:25;;;;;;;;;;;22.20;52.10;;;;;;5424921;26;20021;-44
2024/04/17 08:27:51;;;;;;;;;;;22.20;52.10;;;;;;5425218;26;19941;-47
2024/04/17 08:30:17;;;;;;;;;;;22.20;52.20;;;;;;5424367;26;19945;-42
2024/04/17 08:32:43;;;;;;;;;;;22.20;52.20;;;;;;5424555;26;19998;-41
2024/04/17 08:35:09;;;;;;;;;;;22.20;52.20;;;;;;5424244;26;19929;-43
2024/04/17 08:37:36;;;;;;;;;;;22.20;52.20;;;;;;5421601;26;19955;-44
2024/04/17 08:40:03;;;;;;;;;;;22.20;52.20;;;;;;5424599;26;19954;-42
2024/04/17 08:42:29;;;;;;;;;;;22.20;52.20;;;;;;5424139;26;19929;-41
2024/04/17 08:44:54;;;;;;;;;;;22.20;52.30;;;;;;5384218;26;19936;-41
2024/04/17 08:47:20;;;;;;;;;;;22.20;52.30;;;;;;5390500;26;19928;-42
2024/04/17 08:49:46;;;;;;;;;;;22.10;52.30;;;;;;5424724;26;20004;-41
2024/04/17 08:52:12;;;;;;;;;;;22.10;52.30;;;;;;5392064;26;19929;-47
2024/04/17 08:54:40;;;;;;;;;;;22.10;52.30;;;;;;5424649;26;19975;-42
2024/04/17 08:57:06;;;;;;;;;;;22.10;52.30;;;;;;5423918;26;19928;-41
2024/04/17 08:59:32;;;;;;;;;;;22.10;52.40;;;;;;5392953;26;19929;-42
2024/04/17 09:01:59;;;;;;;;;;;22.10;52.40;;;;;;5424331;26;20361;-42
2024/04/17 09:04:25;;;;;;;;;;;22.10;52.40;;;;;;5407922;26;19928;-42
2024/04/17 09:06:51;;;;;;;;;;;22.10;52.40;;;;;;5390872;26;19929;-41
2024/04/17 09:09:19;;;;;;;;;;;22.10;52.40;;;;;;5393073;26;19937;-41
2024/04/17 09:11:45;;;;;;;;;;;22.00;52.40;;;;;;5355567;26;19933;-41
2024/04/17 09:14:11;;;;;;;;;;;22.00;52.40;;;;;;5362070;26;19940;-46
2024/04/17 09:16:38;;;;;;;;;;;22.00;52.40;;;;;;5391342;26;19933;-41
2024/04/17 09:19:04;;;;;;;;;;;22.00;52.40;;;;;;5389154;26;19929;-41
2024/04/17 09:21:29;;;;;;;;;;;22.00;52.40;;;;;;5390375;26;19937;-41
2024/04/17 09:23:55;;;;;;;;;;;22.00;52.40;;;;;;5385187;26;19937;-44
2024/04/17 09:26:21;;;;;;;;;;;22.00;52.50;;;;;;5391009;26;20366;-44
2024/04/17 09:28:49;;;;;;;;;;;22.00;52.50;;;;;;5361512;26;20552;-42
2024/04/17 09:31:14;;;;;;;;;;;22.00;52.50;;;;;;5391514;26;19929;-42
2024/04/17 09:33:46;;;;;;;;;;;21.90;52.50;;;;;;5399410;26;19935;-42
2024/04/17 09:36:13;;;;;;;;;;;21.90;53.00;;;;;;5422845;26;19940;-41
2024/04/17 09:38:39;;;;;;;;;;;21.90;52.50;;;;;;5423792;26;19929;-43
2024/04/17 09:41:05;;;;;;;;;;;21.90;52.50;;;;;;5423011;26;19932;-45
2024/04/17 09:43:30;;;;;;;;;;;21.90;52.50;;;;;;5423635;26;19936;-41
2024/04/17 09:45:56;;;;;;;;;;;21.90;52.60;;;;;;5423536;26;19928;-43
2024/04/17 09:48:23;;;;;;;;;;;21.90;52.50;;;;;;5422717;26;19937;-41
2024/04/17 09:50:48;;;;;;;;;;;21.90;52.60;;;;;;5423475;26;19970;-42
2024/04/17 09:53:14;;;;;;;;;;;21.90;53.20;;;;;;5391487;26;19933;-43
2024/04/17 09:55:40;;;;;;;;;;;21.90;52.60;;;;;;5422912;26;19929;-42
2024/04/17 09:58:06;;;;;;;;;;;21.90;52.60;;;;;;5418344;26;19975;-41
2024/04/17 10:00:32;;;;;;;;;;;21.80;52.60;;;;;;5423453;26;19929;-42
2024/04/17 10:02:59;;;;;;;;;;;21.80;52.60;;;;;;5391521;26;19929;-44
2024/04/17 10:05:25;;;;;;;;;;;21.80;52.60;;;;;;5390977;26;19968;-42
2024/04/17 10:07:51;;;;;;;;;;;21.80;52.60;;;;;;5421758;26;19935;-42
2024/04/17 10:10:17;;;;;;;;;;;21.80;52.60;;;;;;5422756;26;19929;-42
2024/04/17 10:12:46;;;;;;;;;;;21.80;52.70;;;;;;5389714;26;19936;-42
2024/04/17 10:15:12;;;;;;;;;;;21.80;52.70;;;;;;5422806;26;19935;-43
2024/04/17 10:17:38;;;;;;;;;;;21.80;52.70;;;;;;5423008;26;20264;-41
2024/04/17 10:20:04;;;;;;;;;;;21.80;52.70;;;;;;5377544;26;19985;-41
2024/04/17 10:22:30;;;;;;;;;;;21.80;52.80;;;;;;5422617;26;19929;-42
2024/04/17 10:25:05;;;;;;;;;;;21.70;52.70;;;;;;5424701;26;19929;-42
2024/04/17 10:27:35;;;;;;;;;;;21.70;52.80;;;;;;5418396;26;19931;-42
2024/04/17 10:30:04;;;;;;;;;;;21.70;52.80;;;;;;5426222;26;19936;-42
2024/04/17 10:32:31;;;;;;;;;;;21.70;52.70;;;;;;5426396;26;19931;-42
2024/04/17 10:34:57;;;;;;;;;;;21.70;52.80;;;;;;5426080;26;19929;-45
2024/04/17 10:37:26;;;;;;;;;;;21.70;52.80;;;;;;5381798;26;20021;-44
2024/04/17 10:39:51;;;;;;;;;;;21.70;52.80;;;;;;5395872;26;19933;-44
2024/04/17 10:42:18;;;;;;;;;;;21.70;52.80;;;;;;5394640;26;19979;-41
2024/04/17 10:44:47;;;;;;;;;;;21.70;52.80;;;;;;5426130;26;19936;-43
2024/04/17 10:47:26;;;;;;;;;;;21.70;52.90;;;;;;5387473;26;19936;-44
2024/04/17 10:49:58;;;;;;;;;;;21.60;52.80;;;;;;5426070;26;19940;-42
2024/04/17 10:52:24;;;;;;;;;;;21.70;52.90;;;;;;5426346;26;19929;-42
2024/04/17 10:54:53;;;;;;;;;;;21.60;52.90;;;;;;5421538;26;20012;-41
2024/04/17 10:57:18;;;;;;;;;;;21.60;52.90;;;;;;5425809;26;20052;-42
2024/04/17 10:59:48;;;;;;;;;;;21.60;52.90;;;;;;5388307;26;20496;-43
2024/04/17 11:02:14;;;;;;;;;;;21.60;52.90;;;;;;5423244;26;19940;-47
2024/04/17 11:04:40;;;;;;;;;;;21.60;52.90;;;;;;5402963;26;19943;-41
2024/04/17 11:07:09;;;;;;;;;;;21.60;52.90;;;;;;5393824;26;19929;-43
2024/04/17 11:09:35;;;;;;;;;;;21.60;53.00;;;;;;5389989;26;19953;-41
2024/04/17 11:12:01;;;;;;;;;;;21.60;53.00;;;;;;5388427;26;19992;-41
2024/04/17 11:14:26;;;;;;;;;;;21.50;52.90;;;;;;5395351;26;19929;-43
2024/04/17 11:16:52;;;;;;;;;;;21.60;53.00;;;;;;5393734;26;20743;-45
2024/04/17 11:19:18;;;;;;;;;;;21.50;53.00;;;;;;5387656;26;19941;-40
2024/04/17 11:21:44;;;;;;;;;;;21.60;53.00;;;;;;5385538;26;19939;-41
2024/04/17 11:24:19;;;;;;;;;;;21.50;53.00;;;;;;5387998;26;20680;-41
2024/04/17 11:26:45;;;;;;;;;;;21.50;53.00;;;;;;5390701;26;19941;-40
2024/04/17 11:29:19;;;;;;;;;;;21.50;53.10;;;;;;5356847;26;19975;-42
2024/04/17 11:31:45;;;;;;;;;;;21.50;53.10;;;;;;5392137;26;19958;-41
2024/04/17 11:34:18;;;;;;;;;;;21.50;53.10;;;;;;5403931;26;19936;-40
2024/04/17 11:36:44;;;;;;;;;;;21.50;53.00;;;;;;5424597;26;19933;-40
2024/04/17 11:39:09;;;;;;;;;;;21.50;53.10;;;;;;5424887;26;19929;-41
2024/04/17 11:41:35;;;;;;;;;;;21.50;53.10;;;;;;5425429;26;19929;-40
2024/04/17 11:44:01;;;;;;;;;;;21.50;53.10;;;;;;5424840;26;19957;-41
2024/04/17 11:46:27;;;;;;;;;;;21.50;53.20;;;;;;5424614;26;19953;-40
2024/04/17 11:48:53;;;;;;;;;;;21.40;53.10;;;;;;5425219;26;20267;-41
2024/04/17 11:51:20;;;;;;;;;;;21.40;53.10;;;;;;5424916;26;22530;-42
2024/04/17 11:53:46;;;;;;;;;;;21.40;53.10;;;;;;5424775;26;19937;-40
2024/04/17 11:56:13;;;;;;;;;;;21.50;53.20;;;;;;5424208;26;19929;-40
2024/04/17 11:58:39;;;;;;;;;;;21.40;53.20;;;;;;5424910;26;19933;-40
2024/04/17 12:01:05;;;;;;;;;;;21.40;53.20;;;;;;5424124;26;19968;-41
2024/04/17 12:03:31;;;;;;;;;;;21.40;53.20;;;;;;5415255;26;19929;-41
2024/04/17 12:05:57;;;;;;;;;;;21.40;53.20;;;;;;5424568;26;19974;-45
2024/04/17 12:08:24;;;;;;;;;;;21.40;53.20;;;;;;5424159;26;19928;-40
2024/04/17 12:10:51;;;;;;;;;;;21.40;53.20;;;;;;5424924;26;19932;-40
2024/04/17 12:13:17;;;;;;;;;;;21.40;53.20;;;;;;5424408;26;19936;-39
2024/04/17 12:15:43;;;;;;;;;;;21.40;53.80;;;;;;5424621;26;19957;-40
2024/04/17 12:18:09;;;;;;;;;;;21.30;53.20;;;;;;5422861;26;20717;-41
2024/04/17 12:20:34;;;;;;;;;;;21.30;53.20;;;;;;5425049;26;20452;-40
2024/04/17 12:23:01;;;;;;;;;;;21.30;53.30;;;;;;5424553;26;19929;-41
2024/04/17 12:28:11;;;;;;;;;;;21.30;53.30;;;;;;5424597;26;19979;-42
2024/04/17 12:30:38;;;;;;;;;;;21.30;53.30;;;;;;5424208;26;19941;-39
2024/04/17 12:33:04;;;;;;;;;;;21.30;53.30;;;;;;5424148;26;19929;-40
2024/04/17 12:35:29;;;;;;;;;;;21.30;53.30;;;;;;5425082;26;19929;-42
2024/04/17 12:37:55;;;;;;;;;;;21.30;53.30;;;;;;5425080;26;19964;-41
2024/04/17 12:40:21;;;;;;;;;;;21.30;53.30;;;;;;5424563;26;20397;-40
2024/04/17 12:42:47;;;;;;;;;;;21.30;53.30;;;;;;5424857;26;20374;-40
2024/04/17 12:45:13;;;;;;;;;;;21.30;53.30;;;;;;5423740;26;19975;-44
2024/04/17 12:47:39;;;;;;;;;;;21.30;53.30;;;;;;5419034;26;19937;-41
2024/04/17 12:50:05;;;;;;;;;;;21.30;53.30;;;;;;5424705;26;19954;-40
2024/04/17 12:52:32;;;;;;;;;;;21.30;53.30;;;;;;5424612;26;19940;-41
2024/04/17 12:54:58;;;;;;;;;;;21.30;53.30;;;;;;5423819;26;19929;-43
2024/04/17 12:57:24;;;;;;;;;;;21.30;53.30;;;;;;5423110;26;20023;-41
2024/04/17 12:59:50;;;;;;;;;;;21.30;53.30;;;;;;5424434;26;19929;-41
2024/04/17 13:02:16;;;;;;;;;;;21.30;53.40;;;;;;5423641;26;19936;-41
2024/04/17 13:04:45;;;;;;;;;;;21.30;53.30;;;;;;5424090;26;20647;-41
2024/04/17 13:07:11;;;;;;;;;;;21.30;53.30;;;;;;5417760;26;19929;-40
2024/04/17 13:09:37;;;;;;;;;;;21.30;53.40;;;;;;5424235;26;19929;-41
2024/04/17 13:12:02;;;;;;;;;;;21.30;53.40;;;;;;5423143;26;19937;-43
2024/04/17 13:14:28;;;;;;;;;;;21.30;53.40;;;;;;5419792;26;19940;-41
2024/04/17 13:16:54;;;;;;;;;;;21.30;53.30;;;;;;5423868;26;19928;-40
2024/04/17 13:19:20;;;;;;;;;;;21.30;53.30;;;;;;5424108;26;19935;-42
2024/04/17 13:21:46;;;;;;;;;;;21.30;53.30;;;;;;5424439;26;19929;-42
2024/04/17 13:24:12;;;;;;;;;;;21.30;53.30;;;;;;5423477;26;19929;-41
2024/04/17 13:26:38;;;;;;;;;;;21.30;53.30;;;;;;5422311;26;19929;-42
2024/04/17 13:29:04;;;;;;;;;;;21.30;53.30;;;;;;5423897;26;19975;-41
2024/04/17 13:31:29;;;;;;;;;;;21.30;53.30;;;;;;5423921;26;19935;-41
2024/04/17 13:33:55;;;;;;;;;;;21.30;53.30;;;;;;5410014;26;19937;-40
2024/04/17 13:36:21;;;;;;;;;;;21.30;53.30;;;;;;5389742;26;19937;-41
2024/04/17 13:38:47;;;;;;;;;;;21.30;53.40;;;;;;5388641;26;19929;-42
2024/04/17 13:41:14;;;;;;;;;;;21.30;53.40;;;;;;5392039;26;19950;-41
2024/04/17 13:43:40;;;;;;;;;;;21.30;53.40;;;;;;5391756;26;19995;-41
2024/04/17 13:46:10;;;;;;;;;;;21.30;53.40;;;;;;5381159;26;20270;-41
2024/04/17 13:48:36;;;;;;;;;;;21.30;53.30;;;;;;5383695;26;19933;-46
2024/04/17 13:51:02;;;;;;;;;;;21.30;53.30;;;;;;5386275;26;20039;-43
2024/04/17 13:53:28;;;;;;;;;;;21.30;53.30;;;;;;5387813;26;19937;-41
2024/04/17 13:55:54;;;;;;;;;;;21.30;53.30;;;;;;5390273;26;20716;-41
2024/04/17 13:58:20;;;;;;;;;;;21.30;53.30;;;;;;5390714;26;20027;-41
2024/04/17 14:00:46;;;;;;;;;;;21.40;53.40;;;;;;5385495;26;19958;-41
2024/04/17 14:03:12;;;;;;;;;;;21.30;53.30;;;;;;5396287;26;21697;-44
2024/04/17 14:05:38;;;;;;;;;;;21.40;53.40;;;;;;5415190;26;19929;-41
2024/04/17 14:08:04;;;;;;;;;;;21.40;53.40;;;;;;5427136;26;19929;-41
2024/04/17 14:10:30;;;;;;;;;;;21.40;53.40;;;;;;5381027;26;19929;-40
2024/04/17 14:12:56;;;;;;;;;;;21.40;53.40;;;;;;5417083;26;19929;-43